Time;durP1;ratioP1;P1;durP2;ratioP2;P2;SDS_P1;SDS_P2;PMS_P1;PMS_P2;Temp;Humidity;BMP_temperature;BMP_pressure;BME280_temperature;BME280_humidity;BME280_pressure;Samples;Min_cycle;Max_cycle;Signal;HPM_P1;HPM_P2
2021/01/12 00:01:43;;;;;;;;;;;-3.50;99.90;;;;;;5072069;28;19913;-77
2021/01/12 00:04:08;;;;;;;;;;;-3.50;99.90;;;;;;5077195;28;19908;-77
2021/01/12 00:06:34;;;;;;;;;;;-3.50;99.90;;;;;;5082330;28;20406;-77
2021/01/12 00:08:59;;;;;;;;;;;-3.40;99.90;;;;;;5073877;28;19909;-77
2021/01/12 00:11:25;;;;;;;;;;;-3.40;99.90;;;;;;5070360;28;20353;-77
2021/01/12 00:13:50;;;;;;;;;;;-3.30;99.90;;;;;;5070341;28;20297;-77
2021/01/12 00:16:20;;;;;;;;;;;-3.30;99.90;;;;;;5069585;28;20373;-75
2021/01/12 00:18:46;;;;;;;;;;;-3.20;99.90;;;;;;5071438;28;19962;-77
2021/01/12 00:21:11;;;;;;;;;;;-3.20;99.90;;;;;;5071538;28;19909;-77
2021/01/12 00:23:37;;;;;;;;;;;-3.10;99.90;;;;;;5070215;28;20007;-77
2021/01/12 00:26:08;;;;;;;;;;;-3.10;99.90;;;;;;5069800;28;19909;-75
2021/01/12 00:28:34;;;;;;;;;;;-3.00;99.90;;;;;;5070287;28;19951;-77
2021/01/12 00:31:03;;;;;;;;;;;-3.00;99.90;;;;;;5089234;28;19963;-77
2021/01/12 00:33:29;;;;;;;;;;;-3.00;99.90;;;;;;5094930;28;19915;-77
2021/01/12 00:35:54;;;;;;;;;;;-3.00;99.90;;;;;;5081723;28;19912;-76
2021/01/12 00:38:20;;;;;;;;;;;-2.90;99.90;;;;;;5075625;28;20388;-77
2021/01/12 00:40:45;;;;;;;;;;;-2.90;99.90;;;;;;5075470;28;19915;-77
2021/01/12 00:43:11;;;;;;;;;;;-2.90;99.90;;;;;;5075232;28;19908;-77
2021/01/12 00:45:36;;;;;;;;;;;-2.90;99.90;;;;;;5075201;28;19933;-77
2021/01/12 00:48:02;;;;;;;;;;;-2.90;99.90;;;;;;5075011;28;19912;-77
2021/01/12 00:50:27;;;;;;;;;;;-2.90;99.90;;;;;;5073949;28;19908;-77
2021/01/12 00:52:53;;;;;;;;;;;-2.90;99.90;;;;;;5073899;28;19908;-75
2021/01/12 00:55:18;;;;;;;;;;;-2.80;99.90;;;;;;5075127;28;20345;-77
2021/01/12 00:57:44;;;;;;;;;;;-2.80;99.90;;;;;;5074674;28;19908;-77
2021/01/12 01:00:09;;;;;;;;;;;-2.80;99.90;;;;;;5074900;28;19913;-77
2021/01/12 01:02:35;;;;;;;;;;;-2.80;99.90;;;;;;5073695;28;19908;-77
2021/01/12 01:05:01;;;;;;;;;;;-2.80;99.90;;;;;;5081502;28;20130;-77
2021/01/12 01:07:26;;;;;;;;;;;-2.70;99.90;;;;;;5082664;28;20365;-77
2021/01/12 01:09:51;;;;;;;;;;;-2.70;99.90;;;;;;5074885;28;19923;-77
2021/01/12 01:12:17;;;;;;;;;;;-2.70;99.90;;;;;;5073546;28;19935;-77
2021/01/12 01:14:42;;;;;;;;;;;-2.70;99.90;;;;;;5074831;28;19932;-77
2021/01/12 01:17:08;;;;;;;;;;;-2.60;99.90;;;;;;5073057;28;19908;-77
2021/01/12 01:19:33;;;;;;;;;;;-2.60;99.90;;;;;;5074770;28;19909;-75
2021/01/12 01:21:59;;;;;;;;;;;-2.60;99.90;;;;;;5073632;28;19954;-77
2021/01/12 01:24:24;;;;;;;;;;;-2.50;99.90;;;;;;5074971;28;19932;-77
2021/01/12 01:26:54;;;;;;;;;;;-2.50;99.90;;;;;;5074424;28;19922;-76
2021/01/12 01:29:20;;;;;;;;;;;-2.40;99.90;;;;;;5074811;28;20353;-76
2021/01/12 01:31:45;;;;;;;;;;;-2.40;99.90;;;;;;5073571;28;19923;-78
2021/01/12 01:34:10;;;;;;;;;;;-2.30;99.90;;;;;;5073987;28;20285;-78
2021/01/12 01:36:36;;;;;;;;;;;-2.30;99.90;;;;;;5085854;28;19974;-77
2021/01/12 01:39:02;;;;;;;;;;;-2.20;99.90;;;;;;5074718;28;20335;-78
2021/01/12 01:41:27;;;;;;;;;;;-2.20;99.90;;;;;;5072779;28;20408;-77
2021/01/12 01:43:53;;;;;;;;;;;-2.10;99.90;;;;;;5073070;28;19912;-77
2021/01/12 01:46:18;;;;;;;;;;;-2.10;99.90;;;;;;5072632;28;19908;-77
2021/01/12 01:48:46;;;;;;;;;;;-2.10;99.90;;;;;;5072976;28;19999;-75
2021/01/12 01:51:12;;;;;;;;;;;-2.00;99.90;;;;;;5073949;28;20422;-76
2021/01/12 01:53:38;;;;;;;;;;;-2.00;99.90;;;;;;5073924;28;19912;-76
2021/01/12 01:56:04;;;;;;;;;;;-2.00;99.90;;;;;;5073645;28;20257;-76
2021/01/12 01:58:30;;;;;;;;;;;-1.90;99.90;;;;;;5073590;28;20393;-76
2021/01/12 02:00:56;;;;;;;;;;;-1.90;99.90;;;;;;5073776;28;19959;-76
2021/01/12 02:03:35;;;;;;;;;;;-1.90;99.90;;;;;;5073744;28;20254;-76
2021/01/12 02:06:06;;;;;;;;;;;-1.80;99.90;;;;;;5078224;28;20296;-76
2021/01/12 02:08:52;;;;;;;;;;;-1.80;99.90;;;;;;5073588;28;19923;-76
2021/01/12 02:11:19;;;;;;;;;;;-1.80;99.90;;;;;;5056104;28;19908;-76
2021/01/12 02:13:44;;;;;;;;;;;-1.80;99.90;;;;;;5092905;28;19909;-76
2021/01/12 02:16:10;;;;;;;;;;;-1.80;99.90;;;;;;5092160;28;20322;-76
2021/01/12 02:18:36;;;;;;;;;;;-1.80;99.90;;;;;;5092551;28;19908;-76
2021/01/12 02:21:02;;;;;;;;;;;-1.80;99.90;;;;;;5092668;28;20289;-76
2021/01/12 02:23:36;;;;;;;;;;;-1.80;99.90;;;;;;5091284;28;19908;-76
2021/01/12 02:26:01;;;;;;;;;;;-1.80;99.90;;;;;;5092229;28;19908;-76
2021/01/12 02:28:27;;;;;;;;;;;-1.80;99.90;;;;;;5078593;28;19920;-76
2021/01/12 02:30:52;;;;;;;;;;;-1.80;99.90;;;;;;5072902;28;19916;-76
2021/01/12 02:33:18;;;;;;;;;;;-1.70;99.90;;;;;;5071710;28;20357;-76
2021/01/12 02:35:46;;;;;;;;;;;-1.70;99.90;;;;;;5088516;28;20277;-76
2021/01/12 02:38:11;;;;;;;;;;;-1.70;99.90;;;;;;5075262;28;20265;-76
2021/01/12 02:40:37;;;;;;;;;;;-1.70;99.90;;;;;;5072825;28;19920;-76
2021/01/12 02:43:03;;;;;;;;;;;-1.70;99.90;;;;;;5072824;28;19955;-76
2021/01/12 02:45:30;;;;;;;;;;;-1.70;99.90;;;;;;5072567;28;20346;-76
2021/01/12 02:47:56;;;;;;;;;;;-1.70;99.90;;;;;;5072393;28;19908;-76
2021/01/12 02:50:22;;;;;;;;;;;-1.70;99.90;;;;;;5072555;28;20308;-76
2021/01/12 02:52:47;;;;;;;;;;;-1.60;99.90;;;;;;5070868;28;19908;-76
2021/01/12 02:55:13;;;;;;;;;;;-1.60;99.90;;;;;;5072669;28;19973;-76
2021/01/12 02:57:39;;;;;;;;;;;-1.60;99.90;;;;;;5072138;28;19915;-76
2021/01/12 03:00:05;;;;;;;;;;;-1.60;99.90;;;;;;5073638;28;19909;-76
2021/01/12 03:02:31;;;;;;;;;;;-1.60;99.90;;;;;;5080592;28;19915;-76
2021/01/12 03:04:56;;;;;;;;;;;-1.50;99.90;;;;;;5072617;28;19912;-76
2021/01/12 03:07:22;;;;;;;;;;;-1.50;99.90;;;;;;5071908;28;19913;-76
2021/01/12 03:09:47;;;;;;;;;;;-1.40;99.90;;;;;;5071094;28;20333;-77
2021/01/12 03:12:13;;;;;;;;;;;-1.40;99.90;;;;;;5072689;28;19999;-77
2021/01/12 03:14:41;;;;;;;;;;;-1.40;99.90;;;;;;5072629;28;20349;-77
2021/01/12 03:17:08;;;;;;;;;;;-1.30;99.90;;;;;;5072361;28;19999;-77
2021/01/12 03:19:33;;;;;;;;;;;-1.30;99.90;;;;;;5071977;28;19908;-77
2021/01/12 03:21:59;;;;;;;;;;;-1.30;99.90;;;;;;5071291;28;19915;-77
2021/01/12 03:24:24;;;;;;;;;;;-1.20;99.90;;;;;;5072471;28;19908;-76
2021/01/12 03:26:50;;;;;;;;;;;-1.20;99.90;;;;;;5070456;28;19909;-77
2021/01/12 03:29:15;;;;;;;;;;;-1.20;99.90;;;;;;5072190;28;19962;-77
2021/01/12 03:31:41;;;;;;;;;;;-1.20;99.90;;;;;;5080450;28;19920;-76
2021/01/12 03:34:06;;;;;;;;;;;-1.10;99.90;;;;;;5078339;28;19912;-77
2021/01/12 03:36:31;;;;;;;;;;;-1.10;99.90;;;;;;5072036;28;20006;-77
2021/01/12 03:38:57;;;;;;;;;;;-1.10;99.90;;;;;;5072530;28;19954;-77
2021/01/12 03:41:23;;;;;;;;;;;-1.10;99.90;;;;;;5092041;28;20295;-77
2021/01/12 03:43:48;;;;;;;;;;;-1.10;99.90;;;;;;5091256;28;19908;-77
2021/01/12 03:46:14;;;;;;;;;;;-1.10;99.90;;;;;;5091059;28;20253;-77
2021/01/12 03:48:39;;;;;;;;;;;-1.10;99.90;;;;;;5090124;28;19927;-77
2021/01/12 03:51:04;;;;;;;;;;;-1.10;99.90;;;;;;5091236;28;19908;-77
2021/01/12 03:53:30;;;;;;;;;;;-1.20;99.90;;;;;;5091305;28;20324;-77
2021/01/12 03:55:55;;;;;;;;;;;-1.20;99.90;;;;;;5090859;28;19919;-77
2021/01/12 03:58:21;;;;;;;;;;;-1.20;99.90;;;;;;5091218;28;20057;-77
2021/01/12 04:00:46;;;;;;;;;;;-1.10;99.90;;;;;;5087768;28;19938;-77
2021/01/12 04:03:12;;;;;;;;;;;-1.10;99.90;;;;;;5079600;28;20285;-77
2021/01/12 04:05:38;;;;;;;;;;;-1.10;99.90;;;;;;5082466;28;19913;-76
2021/01/12 04:08:07;;;;;;;;;;;-1.10;99.90;;;;;;5071544;28;19909;-77
2021/01/12 04:10:32;;;;;;;;;;;-1.10;99.90;;;;;;5071914;28;19909;-77
2021/01/12 04:12:59;;;;;;;;;;;-1.00;99.90;;;;;;5070425;28;20353;-76
2021/01/12 04:15:24;;;;;;;;;;;-1.00;99.90;;;;;;5071706;28;20365;-77
2021/01/12 04:17:50;;;;;;;;;;;-1.00;99.90;;;;;;5071594;28;19934;-77
2021/01/12 04:20:15;;;;;;;;;;;-1.00;99.90;;;;;;5070177;28;20319;-75
2021/01/12 04:22:41;;;;;;;;;;;-0.90;99.90;;;;;;5079352;28;19908;-77
2021/01/12 04:25:07;;;;;;;;;;;-0.90;99.90;;;;;;5083825;28;19998;-77
2021/01/12 04:27:32;;;;;;;;;;;-0.90;99.90;;;;;;5070691;28;19908;-76
2021/01/12 04:29:58;;;;;;;;;;;-0.90;99.90;;;;;;5069755;28;19917;-77
2021/01/12 04:32:23;;;;;;;;;;;-0.90;99.90;;;;;;5071017;28;19912;-77
2021/01/12 04:34:49;;;;;;;;;;;-0.90;99.90;;;;;;5071350;28;20365;-77
2021/01/12 04:37:14;;;;;;;;;;;-1.00;99.90;;;;;;5070896;28;19919;-77
2021/01/12 04:39:39;;;;;;;;;;;-1.00;99.90;;;;;;5071073;28;19995;-77
2021/01/12 04:42:05;;;;;;;;;;;-1.00;99.90;;;;;;5071099;28;20289;-77
2021/01/12 04:44:30;;;;;;;;;;;-1.00;99.90;;;;;;5069784;28;20014;-77
2021/01/12 04:46:56;;;;;;;;;;;-1.00;99.90;;;;;;5070590;28;19916;-77
2021/01/12 04:49:21;;;;;;;;;;;-1.00;99.90;;;;;;5070964;28;20358;-77
2021/01/12 04:51:47;;;;;;;;;;;-1.00;99.90;;;;;;5071029;28;19912;-77
2021/01/12 04:54:12;;;;;;;;;;;-1.10;99.90;;;;;;5078198;28;19908;-74
2021/01/12 04:56:38;;;;;;;;;;;-1.10;99.90;;;;;;5076886;28;19917;-77
2021/01/12 04:59:03;;;;;;;;;;;-1.10;99.90;;;;;;5069763;28;19908;-77
2021/01/12 05:01:29;;;;;;;;;;;-1.10;99.90;;;;;;5070893;28;20361;-75
2021/01/12 05:03:55;;;;;;;;;;;-1.10;99.90;;;;;;5070898;28;19959;-75
2021/01/12 05:06:24;;;;;;;;;;;-1.10;99.90;;;;;;5071344;28;19959;-77
2021/01/12 05:08:57;;;;;;;;;;;-1.10;99.90;;;;;;5073047;28;19947;-77
2021/01/12 05:11:33;;;;;;;;;;;-1.10;99.90;;;;;;5073903;28;20111;-78
2021/01/12 05:14:01;;;;;;;;;;;-1.10;99.90;;;;;;5072814;28;19916;-77
2021/01/12 05:16:26;;;;;;;;;;;-1.10;99.90;;;;;;5074770;28;19912;-77
2021/01/12 05:18:54;;;;;;;;;;;-1.00;99.90;;;;;;5077962;28;19934;-77
2021/01/12 05:21:22;;;;;;;;;;;-1.00;99.90;;;;;;5077029;28;19912;-77
2021/01/12 05:23:50;;;;;;;;;;;-1.00;99.90;;;;;;5083461;28;19935;-77
2021/01/12 05:26:17;;;;;;;;;;;-1.00;99.90;;;;;;5082048;28;19909;-77
2021/01/12 05:28:42;;;;;;;;;;;-1.00;99.90;;;;;;5077901;28;19989;-78
2021/01/12 05:31:10;;;;;;;;;;;-0.90;99.90;;;;;;5075785;28;19920;-78
2021/01/12 05:33:38;;;;;;;;;;;-0.90;99.90;;;;;;5077536;28;20002;-76
2021/01/12 05:36:04;;;;;;;;;;;-0.90;99.90;;;;;;5076955;28;20921;-75
2021/01/12 05:38:30;;;;;;;;;;;-0.90;99.90;;;;;;5077941;28;19964;-77
2021/01/12 05:40:57;;;;;;;;;;;-0.90;99.90;;;;;;5077684;28;19963;-77
2021/01/12 05:43:33;;;;;;;;;;;-0.90;99.90;;;;;;5077039;28;19974;-77
2021/01/12 05:46:04;;;;;;;;;;;-0.90;99.90;;;;;;5075360;28;19912;-77
2021/01/12 05:48:31;;;;;;;;;;;-0.90;99.90;;;;;;5077255;28;20008;-76
2021/01/12 05:50:59;;;;;;;;;;;-0.80;99.90;;;;;;5075887;28;20388;-77
2021/01/12 05:53:29;;;;;;;;;;;-0.80;99.90;;;;;;5086834;28;20046;-77
2021/01/12 05:55:56;;;;;;;;;;;-0.80;99.90;;;;;;5078178;28;19917;-77
2021/01/12 05:58:28;;;;;;;;;;;-0.80;99.90;;;;;;5079978;28;20553;-78
2021/01/12 06:00:54;;;;;;;;;;;-0.70;99.90;;;;;;5078447;28;20407;-76
2021/01/12 06:03:24;;;;;;;;;;;-0.70;99.90;;;;;;5077349;28;19930;-77
2021/01/12 06:05:49;;;;;;;;;;;-0.70;99.90;;;;;;5077051;28;19920;-77
2021/01/12 06:08:16;;;;;;;;;;;-0.70;99.90;;;;;;5077110;28;19908;-77
2021/01/12 06:10:45;;;;;;;;;;;-0.60;99.90;;;;;;5077467;28;19908;-77
2021/01/12 06:13:15;;;;;;;;;;;-0.60;99.90;;;;;;5082533;28;20296;-76
2021/01/12 06:15:41;;;;;;;;;;;-0.60;99.90;;;;;;5084027;28;19951;-76
2021/01/12 06:18:10;;;;;;;;;;;-0.60;99.90;;;;;;5075358;28;19923;-77
2021/01/12 06:20:43;;;;;;;;;;;-0.50;99.90;;;;;;5076728;28;19940;-78
2021/01/12 06:23:15;;;;;;;;;;;-0.50;99.90;;;;;;5078346;28;19931;-78
2021/01/12 06:25:40;;;;;;;;;;;-0.50;99.90;;;;;;5083402;28;19908;-77
2021/01/12 06:28:06;;;;;;;;;;;-0.50;99.90;;;;;;5076415;28;19908;-78
2021/01/12 06:30:32;;;;;;;;;;;-0.40;99.90;;;;;;5074951;28;19986;-78
2021/01/12 06:32:58;;;;;;;;;;;-0.40;99.90;;;;;;5093075;28;20242;-78
2021/01/12 06:35:23;;;;;;;;;;;-0.40;99.90;;;;;;5083548;28;19919;-78
2021/01/12 06:37:49;;;;;;;;;;;-0.30;99.90;;;;;;5096228;28;19912;-75
2021/01/12 06:40:17;;;;;;;;;;;-0.30;99.90;;;;;;5096623;28;19989;-76
2021/01/12 06:42:43;;;;;;;;;;;-0.30;99.90;;;;;;5098427;28;19908;-78
2021/01/12 06:45:09;;;;;;;;;;;-0.20;99.90;;;;;;5079324;28;19909;-78
2021/01/12 06:47:35;;;;;;;;;;;-0.20;99.90;;;;;;5078081;28;19908;-77
2021/01/12 06:50:14;;;;;;;;;;;-0.20;99.90;;;;;;5077477;28;19930;-78
2021/01/12 06:52:46;;;;;;;;;;;-0.20;99.90;;;;;;5082689;28;19954;-76
2021/01/12 06:55:15;;;;;;;;;;;-0.10;99.90;;;;;;5081667;28;19966;-78
2021/01/12 06:57:48;;;;;;;;;;;-0.10;99.90;;;;;;5090946;28;19951;-78
2021/01/12 07:00:14;;;;;;;;;;;-0.10;99.90;;;;;;5081531;28;19909;-78
2021/01/12 07:02:40;;;;;;;;;;;-0.10;99.90;;;;;;5083094;28;19923;-75
2021/01/12 07:05:05;;;;;;;;;;;-0.10;99.90;;;;;;5083261;28;19909;-78
2021/01/12 07:07:51;;;;;;;;;;;-0.10;99.90;;;;;;5088762;28;19908;-78
2021/01/12 07:10:17;;;;;;;;;;;0.00;99.90;;;;;;5098447;28;19908;-78
2021/01/12 07:12:43;;;;;;;;;;;0.00;99.90;;;;;;5100099;28;19908;-77
2021/01/12 07:15:09;;;;;;;;;;;0.00;99.90;;;;;;5100014;28;19912;-78
2021/01/12 07:17:39;;;;;;;;;;;0.00;99.90;;;;;;5099979;28;20268;-76
2021/01/12 07:20:05;;;;;;;;;;;0.00;99.90;;;;;;5103116;28;19908;-78
2021/01/12 07:22:31;;;;;;;;;;;0.00;99.90;;;;;;5102743;28;19916;-78
2021/01/12 07:24:57;;;;;;;;;;;0.10;99.90;;;;;;5101740;28;19920;-77
2021/01/12 07:27:22;;;;;;;;;;;0.10;99.90;;;;;;5086299;28;19908;-76
2021/01/12 07:29:49;;;;;;;;;;;0.10;99.90;;;;;;5087188;28;19959;-76
2021/01/12 07:32:31;;;;;;;;;;;0.20;99.90;;;;;;5087039;28;19916;-75
2021/01/12 07:34:58;;;;;;;;;;;0.20;99.90;;;;;;5089249;28;19988;-75
2021/01/12 07:37:53;;;;;;;;;;;0.20;99.90;;;;;;5089812;28;19900;-78
2021/01/12 07:40:19;;;;;;;;;;;0.20;99.90;;;;;;5090591;28;19919;-76
2021/01/12 07:42:47;;;;;;;;;;;0.20;99.90;;;;;;5109435;28;19908;-76
2021/01/12 07:45:14;;;;;;;;;;;0.20;99.90;;;;;;5110174;28;19930;-74
2021/01/12 07:47:39;;;;;;;;;;;0.30;99.90;;;;;;5110561;28;19908;-75
2021/01/12 07:50:06;;;;;;;;;;;0.30;99.90;;;;;;5111336;28;19916;-73
2021/01/12 07:52:32;;;;;;;;;;;0.30;99.90;;;;;;5108355;28;19908;-74
2021/01/12 07:54:58;;;;;;;;;;;0.40;99.90;;;;;;5102818;28;19965;-74
2021/01/12 07:57:24;;;;;;;;;;;0.40;99.90;;;;;;5099526;28;19908;-73
2021/01/12 07:59:50;;;;;;;;;;;0.40;99.90;;;;;;5095379;28;19918;-74
2021/01/12 08:02:16;;;;;;;;;;;0.40;99.90;;;;;;5090738;28;19908;-73
2021/01/12 08:04:41;;;;;;;;;;;0.40;99.90;;;;;;5094247;28;19908;-76
2021/01/12 08:07:07;;;;;;;;;;;0.40;99.90;;;;;;5088897;28;20293;-76
2021/01/12 08:09:33;;;;;;;;;;;0.40;99.90;;;;;;5107125;28;19987;-75
2021/01/12 08:12:03;;;;;;;;;;;0.40;99.90;;;;;;5097319;28;19916;-76
2021/01/12 08:14:28;;;;;;;;;;;0.50;99.90;;;;;;5105678;28;19916;-78
2021/01/12 08:16:54;;;;;;;;;;;0.50;99.90;;;;;;5101210;28;19915;-75
2021/01/12 08:19:21;;;;;;;;;;;0.50;99.90;;;;;;5101187;28;19909;-76
2021/01/12 08:21:46;;;;;;;;;;;0.50;99.90;;;;;;5111430;28;19911;-75
2021/01/12 08:24:18;;;;;;;;;;;0.60;99.90;;;;;;5104276;28;19915;-76
2021/01/12 08:26:44;;;;;;;;;;;0.60;99.90;;;;;;5097267;28;20839;-75
2021/01/12 08:29:10;;;;;;;;;;;0.60;99.90;;;;;;5102509;28;19934;-77
2021/01/12 08:31:41;;;;;;;;;;;0.70;99.90;;;;;;5104984;28;19979;-76
2021/01/12 08:34:08;;;;;;;;;;;0.70;99.90;;;;;;5095285;28;20015;-77
2021/01/12 08:36:35;;;;;;;;;;;0.70;99.90;;;;;;5093659;28;20014;-77
2021/01/12 08:39:01;;;;;;;;;;;0.80;99.90;;;;;;5103376;28;19908;-75
2021/01/12 08:41:27;;;;;;;;;;;0.70;99.90;;;;;;5098410;28;20262;-75
2021/01/12 08:43:56;;;;;;;;;;;0.80;99.90;;;;;;5099187;28;19908;-74
2021/01/12 08:46:27;;;;;;;;;;;0.80;99.90;;;;;;5098955;28;19930;-75
2021/01/12 08:48:53;;;;;;;;;;;0.80;99.90;;;;;;5098235;28;20003;-75
2021/01/12 08:51:18;;;;;;;;;;;0.80;99.90;;;;;;5098658;28;19916;-73
2021/01/12 08:53:47;;;;;;;;;;;0.80;99.90;;;;;;5107734;28;19908;-74
2021/01/12 08:56:13;;;;;;;;;;;0.90;99.90;;;;;;5106218;28;19916;-74
2021/01/12 08:58:39;;;;;;;;;;;0.90;99.90;;;;;;5103877;28;19909;-75
2021/01/12 09:01:05;;;;;;;;;;;0.90;99.90;;;;;;5098932;28;19923;-74
2021/01/12 09:03:30;;;;;;;;;;;0.90;99.90;;;;;;5104592;28;19912;-73
2021/01/12 09:05:56;;;;;;;;;;;0.90;99.90;;;;;;5097269;28;19932;-74
2021/01/12 09:08:22;;;;;;;;;;;0.90;99.90;;;;;;5102996;28;20191;-75
2021/01/12 09:10:48;;;;;;;;;;;1.00;99.90;;;;;;5102914;28;19908;-73
2021/01/12 09:13:14;;;;;;;;;;;1.00;99.90;;;;;;5101440;28;19909;-75
2021/01/12 09:15:48;;;;;;;;;;;1.00;99.90;;;;;;5114141;28;19943;-75
2021/01/12 09:18:14;;;;;;;;;;;1.00;99.90;;;;;;5102694;28;19908;-72
2021/01/12 09:20:39;;;;;;;;;;;1.00;99.90;;;;;;5106694;28;19931;-75
2021/01/12 09:23:06;;;;;;;;;;;1.10;99.90;;;;;;5101945;28;19934;-73
2021/01/12 09:25:32;;;;;;;;;;;1.10;99.90;;;;;;5110499;28;19915;-73
2021/01/12 09:28:11;;;;;;;;;;;1.10;99.90;;;;;;5099101;28;19924;-76
2021/01/12 09:30:37;;;;;;;;;;;1.20;99.90;;;;;;5104299;28;20034;-74
2021/01/12 09:33:02;;;;;;;;;;;1.20;99.90;;;;;;5100090;28;19919;-74
2021/01/12 09:35:28;;;;;;;;;;;1.20;99.90;;;;;;5112092;28;19903;-75
2021/01/12 09:37:54;;;;;;;;;;;1.30;99.90;;;;;;5098498;28;19923;-75
2021/01/12 09:40:20;;;;;;;;;;;1.30;99.90;;;;;;5099727;28;19931;-74
2021/01/12 09:42:46;;;;;;;;;;;1.30;99.90;;;;;;5112449;28;20032;-75
2021/01/12 09:45:11;;;;;;;;;;;1.30;99.90;;;;;;5093619;28;19896;-75
2021/01/12 09:47:37;;;;;;;;;;;1.40;99.90;;;;;;5098730;28;19943;-73
2021/01/12 09:50:06;;;;;;;;;;;1.40;99.90;;;;;;5096944;28;19912;-75
2021/01/12 09:52:31;;;;;;;;;;;1.40;99.90;;;;;;5104938;28;19908;-74
2021/01/12 09:54:57;;;;;;;;;;;1.40;99.90;;;;;;5098507;28;19916;-77
2021/01/12 09:57:22;;;;;;;;;;;1.40;99.90;;;;;;5102256;28;19908;-73
2021/01/12 09:59:48;;;;;;;;;;;1.50;99.90;;;;;;5107298;28;19915;-74
2021/01/12 10:02:13;;;;;;;;;;;1.50;99.90;;;;;;5104005;28;19955;-74
2021/01/12 10:04:38;;;;;;;;;;;1.60;99.90;;;;;;5098944;28;20262;-76
2021/01/12 10:07:04;;;;;;;;;;;1.60;99.90;;;;;;5101321;28;19909;-75
2021/01/12 10:09:29;;;;;;;;;;;1.60;99.90;;;;;;5094239;28;19923;-76
2021/01/12 10:11:55;;;;;;;;;;;1.60;99.90;;;;;;5091598;28;19916;-76
2021/01/12 10:14:21;;;;;;;;;;;1.60;99.90;;;;;;5098027;28;19919;-75
2021/01/12 10:16:47;;;;;;;;;;;1.60;99.90;;;;;;5105098;28;19944;-75
2021/01/12 10:19:13;;;;;;;;;;;1.60;99.90;;;;;;5094573;28;19908;-75
2021/01/12 10:21:38;;;;;;;;;;;1.50;99.90;;;;;;5083883;28;19934;-73
2021/01/12 10:24:04;;;;;;;;;;;1.50;99.90;;;;;;5095305;28;19930;-74
2021/01/12 10:26:30;;;;;;;;;;;1.50;99.90;;;;;;5090411;28;20457;-74
2021/01/12 10:28:56;;;;;;;;;;;1.40;99.90;;;;;;5094050;28;19919;-75
2021/01/12 10:31:22;;;;;;;;;;;1.40;99.90;;;;;;5091686;28;20366;-75
2021/01/12 10:33:48;;;;;;;;;;;1.40;99.90;;;;;;5097968;28;19919;-72
2021/01/12 10:36:14;;;;;;;;;;;1.40;99.90;;;;;;5085201;28;19916;-75
2021/01/12 10:38:39;;;;;;;;;;;1.40;99.90;;;;;;5082162;28;20300;-75
2021/01/12 10:41:05;;;;;;;;;;;1.40;99.90;;;;;;5075287;28;19912;-75
2021/01/12 10:43:30;;;;;;;;;;;1.40;99.90;;;;;;5085461;28;19917;-74
2021/01/12 10:45:56;;;;;;;;;;;1.40;99.90;;;;;;5082871;28;20167;-75
2021/01/12 10:48:22;;;;;;;;;;;1.40;99.90;;;;;;5085296;28;20388;-75
2021/01/12 10:50:48;;;;;;;;;;;1.40;99.90;;;;;;5079103;28;19942;-75
2021/01/12 10:53:13;;;;;;;;;;;1.40;99.90;;;;;;5074218;28;19912;-75
2021/01/12 10:55:39;;;;;;;;;;;1.40;99.90;;;;;;5085688;28;20163;-74
2021/01/12 10:58:04;;;;;;;;;;;1.40;99.90;;;;;;5078369;28;20323;-75
2021/01/12 11:00:30;;;;;;;;;;;1.40;99.90;;;;;;5082822;28;20422;-75
2021/01/12 11:02:56;;;;;;;;;;;1.40;99.90;;;;;;5078621;28;20007;-74
2021/01/12 11:05:21;;;;;;;;;;;1.40;99.90;;;;;;5085615;28;19913;-75
2021/01/12 11:07:47;;;;;;;;;;;1.40;99.90;;;;;;5078276;28;20399;-74
2021/01/12 11:10:13;;;;;;;;;;;1.40;99.90;;;;;;5084511;28;20293;-74
2021/01/12 11:12:39;;;;;;;;;;;1.40;99.90;;;;;;5079618;28;19959;-74
2021/01/12 11:15:06;;;;;;;;;;;1.40;99.90;;;;;;5079799;28;19912;-75
2021/01/12 11:17:33;;;;;;;;;;;1.40;99.90;;;;;;5078541;28;19909;-74
2021/01/12 11:19:59;;;;;;;;;;;1.40;99.90;;;;;;5079968;28;19921;-75
2021/01/12 11:22:27;;;;;;;;;;;1.40;99.90;;;;;;5078370;28;19909;-74
2021/01/12 11:24:54;;;;;;;;;;;1.40;99.90;;;;;;5074028;28;19932;-75
2021/01/12 11:27:19;;;;;;;;;;;1.40;99.90;;;;;;5086128;28;19942;-75
2021/01/12 11:29:45;;;;;;;;;;;1.40;99.90;;;;;;5071473;28;19942;-75
2021/01/12 11:32:10;;;;;;;;;;;1.40;99.90;;;;;;5085288;28;19912;-74
2021/01/12 11:34:36;;;;;;;;;;;1.40;99.90;;;;;;5072218;28;19964;-74
2021/01/12 11:37:01;;;;;;;;;;;1.40;99.90;;;;;;5076410;28;19909;-75
2021/01/12 11:39:27;;;;;;;;;;;1.30;99.90;;;;;;5069945;28;19913;-74
2021/01/12 11:41:53;;;;;;;;;;;1.40;99.90;;;;;;5078914;28;19934;-74
2021/01/12 11:44:20;;;;;;;;;;;1.40;99.90;;;;;;5070009;28;19916;-74
2021/01/12 11:46:46;;;;;;;;;;;1.40;99.90;;;;;;5079010;28;19999;-75
2021/01/12 11:49:12;;;;;;;;;;;1.40;99.90;;;;;;5078669;28;19952;-75
2021/01/12 11:51:38;;;;;;;;;;;1.30;99.90;;;;;;5071668;28;19960;-75
2021/01/12 11:54:04;;;;;;;;;;;1.40;99.90;;;;;;5087217;28;20006;-75
2021/01/12 11:56:29;;;;;;;;;;;1.40;99.90;;;;;;5079691;28;19919;-74
2021/01/12 11:58:55;;;;;;;;;;;1.40;99.90;;;;;;5080747;28;19909;-75
2021/01/12 12:01:20;;;;;;;;;;;1.40;99.90;;;;;;5076449;28;20270;-73
2021/01/12 12:03:46;;;;;;;;;;;1.40;99.90;;;;;;5084635;28;19908;-74
2021/01/12 12:06:12;;;;;;;;;;;1.40;99.90;;;;;;5071634;28;19909;-74
2021/01/12 12:08:37;;;;;;;;;;;1.40;99.90;;;;;;5073606;28;20351;-74
2021/01/12 12:11:03;;;;;;;;;;;1.40;99.90;;;;;;5079614;28;20268;-74
2021/01/12 12:13:28;;;;;;;;;;;1.30;99.90;;;;;;5078265;28;19912;-75
2021/01/12 12:15:54;;;;;;;;;;;1.40;99.90;;;;;;5068919;28;20300;-75
2021/01/12 12:18:19;;;;;;;;;;;1.40;99.90;;;;;;5079580;28;19987;-75
2021/01/12 12:20:45;;;;;;;;;;;1.40;99.90;;;;;;5080735;28;19930;-74
2021/01/12 12:23:10;;;;;;;;;;;1.40;99.90;;;;;;5072558;28;20415;-74
2021/01/12 12:25:36;;;;;;;;;;;1.40;99.90;;;;;;5079579;28;19915;-75
2021/01/12 12:28:01;;;;;;;;;;;1.40;99.90;;;;;;5077090;28;20300;-75
2021/01/12 12:30:27;;;;;;;;;;;1.40;99.90;;;;;;5087637;28;20289;-74
2021/01/12 12:32:52;;;;;;;;;;;1.40;99.90;;;;;;5075458;28;19908;-75
2021/01/12 12:35:19;;;;;;;;;;;1.50;99.90;;;;;;5074075;28;20321;-75
2021/01/12 12:37:44;;;;;;;;;;;1.40;99.90;;;;;;5074903;28;20385;-75
2021/01/12 12:40:10;;;;;;;;;;;1.50;99.90;;;;;;5075170;28;19952;-75
2021/01/12 12:42:35;;;;;;;;;;;1.50;99.90;;;;;;5075122;28;20365;-74
2021/01/12 12:45:01;;;;;;;;;;;1.50;99.90;;;;;;5075098;28;19909;-75
2021/01/12 12:47:27;;;;;;;;;;;1.50;99.90;;;;;;5074865;28;19962;-75
2021/01/12 12:49:52;;;;;;;;;;;1.50;99.90;;;;;;5076609;28;19954;-75
2021/01/12 12:52:18;;;;;;;;;;;1.50;99.90;;;;;;5087062;28;19909;-74
2021/01/12 12:54:43;;;;;;;;;;;1.50;99.90;;;;;;5078168;28;19936;-75
2021/01/12 12:57:09;;;;;;;;;;;1.50;99.90;;;;;;5073058;28;19908;-75
2021/01/12 12:59:34;;;;;;;;;;;1.50;99.90;;;;;;5074812;28;20403;-75
2021/01/12 13:02:00;;;;;;;;;;;1.50;99.90;;;;;;5073534;28;19909;-74
2021/01/12 13:04:25;;;;;;;;;;;1.50;99.90;;;;;;5073242;28;19908;-75
2021/01/12 13:06:52;;;;;;;;;;;1.50;99.90;;;;;;5074224;28;19909;-77
2021/01/12 13:09:18;;;;;;;;;;;1.50;99.90;;;;;;5073383;28;19908;-75
2021/01/12 13:11:44;;;;;;;;;;;1.50;99.90;;;;;;5073624;28;20348;-75
2021/01/12 13:14:10;;;;;;;;;;;1.50;99.90;;;;;;5073136;28;19939;-75
2021/01/12 13:16:39;;;;;;;;;;;1.50;99.90;;;;;;5074165;28;20365;-75
2021/01/12 13:19:05;;;;;;;;;;;1.50;99.90;;;;;;5074456;28;19931;-74
2021/01/12 13:21:31;;;;;;;;;;;1.50;99.90;;;;;;5082051;28;19916;-75
2021/01/12 13:23:57;;;;;;;;;;;1.50;99.90;;;;;;5074358;28;19912;-75
2021/01/12 13:26:22;;;;;;;;;;;1.50;99.90;;;;;;5074184;28;19954;-74
2021/01/12 13:28:48;;;;;;;;;;;1.50;99.90;;;;;;5074190;28;20278;-76
2021/01/12 13:31:13;;;;;;;;;;;1.50;99.90;;;;;;5072859;28;19923;-75
2021/01/12 13:33:39;;;;;;;;;;;1.50;99.90;;;;;;5074265;28;19915;-74
2021/01/12 13:36:04;;;;;;;;;;;1.50;99.90;;;;;;5073718;28;19913;-76
2021/01/12 13:38:30;;;;;;;;;;;1.50;99.90;;;;;;5072146;28;19908;-75
2021/01/12 13:40:55;;;;;;;;;;;1.50;99.90;;;;;;5093315;28;19909;-75
2021/01/12 13:43:21;;;;;;;;;;;1.50;99.90;;;;;;5073711;28;20357;-75
2021/01/12 13:45:46;;;;;;;;;;;1.50;99.90;;;;;;5073741;28;20376;-76
2021/01/12 13:48:13;;;;;;;;;;;1.60;99.90;;;;;;5073879;28;19916;-75
2021/01/12 13:50:39;;;;;;;;;;;1.60;99.90;;;;;;5082014;28;19908;-75
2021/01/12 13:53:04;;;;;;;;;;;1.60;99.90;;;;;;5077955;28;20423;-75
2021/01/12 13:55:30;;;;;;;;;;;1.60;99.90;;;;;;5073930;28;19913;-76
2021/01/12 13:58:06;;;;;;;;;;;1.60;99.90;;;;;;5073809;28;19908;-75
2021/01/12 14:00:33;;;;;;;;;;;1.60;99.90;;;;;;5072532;28;20373;-75
2021/01/12 14:02:59;;;;;;;;;;;1.60;99.90;;;;;;5073689;28;19946;-75
2021/01/12 14:05:25;;;;;;;;;;;1.60;99.90;;;;;;5072352;28;19908;-75
2021/01/12 14:07:51;;;;;;;;;;;1.60;99.90;;;;;;5073349;28;19908;-76
2021/01/12 14:10:16;;;;;;;;;;;1.60;99.90;;;;;;5072163;28;19915;-75
2021/01/12 14:12:42;;;;;;;;;;;1.60;99.90;;;;;;5072322;28;19930;-75
2021/01/12 14:15:08;;;;;;;;;;;1.50;99.90;;;;;;5073396;28;19919;-75
2021/01/12 14:17:36;;;;;;;;;;;1.50;99.90;;;;;;5071818;28;20371;-75
2021/01/12 14:20:02;;;;;;;;;;;1.60;99.90;;;;;;5073449;28;19999;-75